sensor_id;sensor_type;location;lat;lon;timestamp;P1;durP1;ratioP1;P2;durP2;ratioP2
71679;SDS011;59512;42.662;23.254;2023-02-15T00:01:39;56.47;;;29.07;;
71679;SDS011;59512;42.662;23.254;2023-02-15T00:04:05;52.20;;;28.90;;
71679;SDS011;59512;42.662;23.254;2023-02-15T00:06:31;49.05;;;28.65;;
71679;SDS011;59512;42.662;23.254;2023-02-15T00:08:57;50.65;;;27.67;;
71679;SDS011;59512;42.662;23.254;2023-02-15T00:11:23;54.17;;;28.88;;
71679;SDS011;59512;42.662;23.254;2023-02-15T00:14:08;51.78;;;29.00;;
71679;SDS011;59512;42.662;23.254;2023-02-15T00:16:39;48.60;;;27.90;;
71679;SDS011;59512;42.662;23.254;2023-02-15T00:19:05;52.78;;;28.48;;
71679;SDS011;59512;42.662;23.254;2023-02-15T00:21:32;49.35;;;27.85;;
71679;SDS011;59512;42.662;23.254;2023-02-15T00:23:58;50.75;;;27.70;;
71679;SDS011;59512;42.662;23.254;2023-02-15T00:26:25;51.13;;;28.43;;
71679;SDS011;59512;42.662;23.254;2023-02-15T00:28:51;53.25;;;30.95;;
71679;SDS011;59512;42.662;23.254;2023-02-15T00:31:17;52.85;;;28.60;;
71679;SDS011;59512;42.662;23.254;2023-02-15T00:33:42;46.90;;;26.17;;
71679;SDS011;59512;42.662;23.254;2023-02-15T00:36:09;48.10;;;28.45;;
71679;SDS011;59512;42.662;23.254;2023-02-15T00:38:35;51.17;;;28.63;;
71679;SDS011;59512;42.662;23.254;2023-02-15T00:41:02;49.60;;;27.52;;
71679;SDS011;59512;42.662;23.254;2023-02-15T00:43:29;53.25;;;27.77;;
71679;SDS011;59512;42.662;23.254;2023-02-15T00:45:55;48.47;;;27.13;;
71679;SDS011;59512;42.662;23.254;2023-02-15T00:48:21;48.87;;;27.20;;
71679;SDS011;59512;42.662;23.254;2023-02-15T00:50:48;53.28;;;29.00;;
71679;SDS011;59512;42.662;23.254;2023-02-15T00:53:14;49.97;;;27.70;;
71679;SDS011;59512;42.662;23.254;2023-02-15T00:55:40;51.03;;;28.47;;
71679;SDS011;59512;42.662;23.254;2023-02-15T00:58:06;51.23;;;28.67;;
71679;SDS011;59512;42.662;23.254;2023-02-15T01:00:32;49.30;;;26.98;;
71679;SDS011;59512;42.662;23.254;2023-02-15T01:02:58;49.97;;;26.87;;
71679;SDS011;59512;42.662;23.254;2023-02-15T01:05:23;53.38;;;28.50;;
71679;SDS011;59512;42.662;23.254;2023-02-15T01:07:48;49.07;;;27.27;;
71679;SDS011;59512;42.662;23.254;2023-02-15T01:10:14;48.77;;;27.67;;
71679;SDS011;59512;42.662;23.254;2023-02-15T01:12:39;49.43;;;27.97;;
71679;SDS011;59512;42.662;23.254;2023-02-15T01:15:05;50.53;;;28.67;;
71679;SDS011;59512;42.662;23.254;2023-02-15T01:17:31;49.83;;;27.10;;
71679;SDS011;59512;42.662;23.254;2023-02-15T01:19:56;48.67;;;28.30;;
71679;SDS011;59512;42.662;23.254;2023-02-15T01:22:21;48.77;;;27.90;;
71679;SDS011;59512;42.662;23.254;2023-02-15T01:24:48;48.58;;;27.92;;
71679;SDS011;59512;42.662;23.254;2023-02-15T01:27:15;49.85;;;28.83;;
71679;SDS011;59512;42.662;23.254;2023-02-15T01:29:40;49.50;;;28.93;;
71679;SDS011;59512;42.662;23.254;2023-02-15T01:32:05;50.00;;;28.30;;
71679;SDS011;59512;42.662;23.254;2023-02-15T01:34:31;49.93;;;28.00;;
71679;SDS011;59512;42.662;23.254;2023-02-15T01:36:56;50.13;;;26.93;;
71679;SDS011;59512;42.662;23.254;2023-02-15T01:39:22;50.47;;;27.20;;
71679;SDS011;59512;42.662;23.254;2023-02-15T01:41:47;48.60;;;27.70;;
71679;SDS011;59512;42.662;23.254;2023-02-15T01:47:22;49.50;;;27.20;;
71679;SDS011;59512;42.662;23.254;2023-02-15T01:50:01;45.05;;;26.20;;
71679;SDS011;59512;42.662;23.254;2023-02-15T01:52:40;49.00;;;27.80;;
71679;SDS011;59512;42.662;23.254;2023-02-15T01:55:12;49.13;;;28.23;;
71679;SDS011;59512;42.662;23.254;2023-02-15T01:57:38;50.83;;;28.02;;
71679;SDS011;59512;42.662;23.254;2023-02-15T02:00:05;48.47;;;27.77;;
71679;SDS011;59512;42.662;23.254;2023-02-15T02:02:31;52.92;;;28.50;;
71679;SDS011;59512;42.662;23.254;2023-02-15T02:04:58;45.72;;;25.77;;
71679;SDS011;59512;42.662;23.254;2023-02-15T02:07:27;44.80;;;25.87;;
71679;SDS011;59512;42.662;23.254;2023-02-15T02:09:54;50.58;;;27.98;;
71679;SDS011;59512;42.662;23.254;2023-02-15T02:12:20;50.67;;;27.75;;
71679;SDS011;59512;42.662;23.254;2023-02-15T02:14:48;54.13;;;29.30;;
71679;SDS011;59512;42.662;23.254;2023-02-15T02:19:57;53.10;;;29.38;;
71679;SDS011;59512;42.662;23.254;2023-02-15T02:36:36;47.08;;;26.00;;
71679;SDS011;59512;42.662;23.254;2023-02-15T02:42:01;48.30;;;26.80;;
71679;SDS011;59512;42.662;23.254;2023-02-15T02:47:23;44.00;;;25.48;;
71679;SDS011;59512;42.662;23.254;2023-02-15T02:49:58;44.40;;;24.83;;
71679;SDS011;59512;42.662;23.254;2023-02-15T02:54:59;42.50;;;24.07;;
71679;SDS011;59512;42.662;23.254;2023-02-15T02:57:25;39.42;;;22.75;;
71679;SDS011;59512;42.662;23.254;2023-02-15T02:59:52;41.28;;;23.58;;
71679;SDS011;59512;42.662;23.254;2023-02-15T03:02:21;42.93;;;24.20;;
71679;SDS011;59512;42.662;23.254;2023-02-15T03:04:52;44.15;;;23.85;;
71679;SDS011;59512;42.662;23.254;2023-02-15T03:07:23;43.53;;;24.77;;
71679;SDS011;59512;42.662;23.254;2023-02-15T03:09:51;42.80;;;24.35;;
71679;SDS011;59512;42.662;23.254;2023-02-15T03:12:21;42.80;;;24.47;;
71679;SDS011;59512;42.662;23.254;2023-02-15T03:14:49;41.65;;;23.33;;
71679;SDS011;59512;42.662;23.254;2023-02-15T03:17:16;41.25;;;23.65;;
71679;SDS011;59512;42.662;23.254;2023-02-15T03:19:42;44.08;;;24.05;;
71679;SDS011;59512;42.662;23.254;2023-02-15T03:22:21;40.60;;;22.35;;
71679;SDS011;59512;42.662;23.254;2023-02-15T03:24:59;42.97;;;23.87;;
71679;SDS011;59512;42.662;23.254;2023-02-15T03:27:27;41.53;;;22.73;;
71679;SDS011;59512;42.662;23.254;2023-02-15T03:29:57;44.30;;;23.30;;
71679;SDS011;59512;42.662;23.254;2023-02-15T03:32:24;39.38;;;22.80;;
71679;SDS011;59512;42.662;23.254;2023-02-15T03:34:51;40.60;;;22.83;;
71679;SDS011;59512;42.662;23.254;2023-02-15T03:37:27;40.73;;;23.53;;
71679;SDS011;59512;42.662;23.254;2023-02-15T03:43:02;38.73;;;22.87;;
71679;SDS011;59512;42.662;23.254;2023-02-15T03:45:34;37.95;;;22.35;;
71679;SDS011;59512;42.662;23.254;2023-02-15T03:48:01;41.25;;;23.30;;
71679;SDS011;59512;42.662;23.254;2023-02-15T03:50:28;42.40;;;24.00;;
71679;SDS011;59512;42.662;23.254;2023-02-15T03:53:15;39.05;;;22.85;;
71679;SDS011;59512;42.662;23.254;2023-02-15T03:55:46;41.07;;;23.17;;
71679;SDS011;59512;42.662;23.254;2023-02-15T03:58:12;42.45;;;23.27;;
71679;SDS011;59512;42.662;23.254;2023-02-15T04:01:01;44.20;;;24.75;;
71679;SDS011;59512;42.662;23.254;2023-02-15T04:06:13;42.60;;;24.50;;
71679;SDS011;59512;42.662;23.254;2023-02-15T04:08:39;45.67;;;24.83;;
71679;SDS011;59512;42.662;23.254;2023-02-15T04:11:23;42.15;;;24.50;;
71679;SDS011;59512;42.662;23.254;2023-02-15T04:13:48;42.03;;;24.27;;
71679;SDS011;59512;42.662;23.254;2023-02-15T04:16:21;44.17;;;24.23;;
71679;SDS011;59512;42.662;23.254;2023-02-15T04:18:49;45.63;;;24.00;;
71679;SDS011;59512;42.662;23.254;2023-02-15T04:21:33;45.80;;;26.40;;
71679;SDS011;59512;42.662;23.254;2023-02-15T04:24:17;43.65;;;24.88;;
71679;SDS011;59512;42.662;23.254;2023-02-15T04:27:01;46.90;;;25.40;;
71679;SDS011;59512;42.662;23.254;2023-02-15T04:29:28;44.45;;;26.08;;
71679;SDS011;59512;42.662;23.254;2023-02-15T04:31:54;42.30;;;24.73;;
71679;SDS011;59512;42.662;23.254;2023-02-15T04:34:21;46.20;;;25.42;;
71679;SDS011;59512;42.662;23.254;2023-02-15T04:36:46;43.50;;;25.25;;
71679;SDS011;59512;42.662;23.254;2023-02-15T04:39:12;44.70;;;24.57;;
71679;SDS011;59512;42.662;23.254;2023-02-15T04:41:39;44.60;;;26.08;;
71679;SDS011;59512;42.662;23.254;2023-02-15T04:44:05;42.87;;;24.67;;
71679;SDS011;59512;42.662;23.254;2023-02-15T04:46:30;44.47;;;24.85;;
71679;SDS011;59512;42.662;23.254;2023-02-15T04:48:56;45.57;;;26.03;;
71679;SDS011;59512;42.662;23.254;2023-02-15T04:51:21;47.53;;;24.73;;
71679;SDS011;59512;42.662;23.254;2023-02-15T04:53:47;42.38;;;23.60;;
71679;SDS011;59512;42.662;23.254;2023-02-15T04:56:12;42.77;;;24.57;;
71679;SDS011;59512;42.662;23.254;2023-02-15T04:58:38;52.13;;;27.90;;
71679;SDS011;59512;42.662;23.254;2023-02-15T05:01:06;44.45;;;25.20;;
71679;SDS011;59512;42.662;23.254;2023-02-15T05:03:32;42.78;;;23.77;;
71679;SDS011;59512;42.662;23.254;2023-02-15T05:05:59;44.70;;;24.67;;
71679;SDS011;59512;42.662;23.254;2023-02-15T05:08:24;47.53;;;25.65;;
71679;SDS011;59512;42.662;23.254;2023-02-15T05:10:50;42.60;;;24.63;;
71679;SDS011;59512;42.662;23.254;2023-02-15T05:13:15;42.63;;;24.17;;
71679;SDS011;59512;42.662;23.254;2023-02-15T05:15:41;44.47;;;24.67;;
71679;SDS011;59512;42.662;23.254;2023-02-15T05:18:07;44.90;;;25.23;;
71679;SDS011;59512;42.662;23.254;2023-02-15T05:20:33;45.67;;;25.42;;
71679;SDS011;59512;42.662;23.254;2023-02-15T05:22:58;44.85;;;25.05;;
71679;SDS011;59512;42.662;23.254;2023-02-15T05:25:24;45.07;;;24.47;;
71679;SDS011;59512;42.662;23.254;2023-02-15T05:28:08;44.85;;;24.60;;
71679;SDS011;59512;42.662;23.254;2023-02-15T05:30:44;41.63;;;23.40;;
71679;SDS011;59512;42.662;23.254;2023-02-15T05:33:10;44.42;;;24.38;;
71679;SDS011;59512;42.662;23.254;2023-02-15T05:35:35;43.40;;;24.87;;
71679;SDS011;59512;42.662;23.254;2023-02-15T05:38:01;43.27;;;23.63;;
71679;SDS011;59512;42.662;23.254;2023-02-15T05:40:26;44.43;;;24.37;;
71679;SDS011;59512;42.662;23.254;2023-02-15T05:42:51;46.45;;;25.35;;
71679;SDS011;59512;42.662;23.254;2023-02-15T05:45:17;42.67;;;25.13;;
71679;SDS011;59512;42.662;23.254;2023-02-15T05:47:42;46.87;;;25.23;;
71679;SDS011;59512;42.662;23.254;2023-02-15T05:50:08;48.97;;;26.53;;
71679;SDS011;59512;42.662;23.254;2023-02-15T05:52:35;50.15;;;26.90;;
71679;SDS011;59512;42.662;23.254;2023-02-15T05:55:00;50.30;;;25.27;;
71679;SDS011;59512;42.662;23.254;2023-02-15T05:57:27;42.42;;;24.00;;
71679;SDS011;59512;42.662;23.254;2023-02-15T05:59:53;51.15;;;28.13;;
71679;SDS011;59512;42.662;23.254;2023-02-15T06:02:18;46.93;;;26.03;;
71679;SDS011;59512;42.662;23.254;2023-02-15T06:04:44;44.17;;;24.13;;
71679;SDS011;59512;42.662;23.254;2023-02-15T06:07:09;42.90;;;25.03;;
71679;SDS011;59512;42.662;23.254;2023-02-15T06:09:35;39.22;;;23.20;;
71679;SDS011;59512;42.662;23.254;2023-02-15T06:12:00;43.88;;;24.35;;
71679;SDS011;59512;42.662;23.254;2023-02-15T06:14:25;44.63;;;24.47;;
71679;SDS011;59512;42.662;23.254;2023-02-15T06:16:51;39.40;;;22.33;;
71679;SDS011;59512;42.662;23.254;2023-02-15T06:19:16;43.63;;;24.23;;
71679;SDS011;59512;42.662;23.254;2023-02-15T06:21:42;41.78;;;23.70;;
71679;SDS011;59512;42.662;23.254;2023-02-15T06:24:10;42.00;;;23.00;;
71679;SDS011;59512;42.662;23.254;2023-02-15T06:26:35;43.87;;;22.73;;
71679;SDS011;59512;42.662;23.254;2023-02-15T06:29:01;38.30;;;22.08;;
71679;SDS011;59512;42.662;23.254;2023-02-15T06:31:26;36.50;;;20.90;;
71679;SDS011;59512;42.662;23.254;2023-02-15T06:33:52;37.23;;;20.90;;
71679;SDS011;59512;42.662;23.254;2023-02-15T06:36:17;36.97;;;20.10;;
71679;SDS011;59512;42.662;23.254;2023-02-15T06:38:43;37.35;;;21.13;;
71679;SDS011;59512;42.662;23.254;2023-02-15T06:41:08;32.83;;;18.93;;
71679;SDS011;59512;42.662;23.254;2023-02-15T06:43:34;36.93;;;21.17;;
71679;SDS011;59512;42.662;23.254;2023-02-15T06:45:59;34.57;;;19.33;;
71679;SDS011;59512;42.662;23.254;2023-02-15T06:48:25;35.33;;;21.00;;
71679;SDS011;59512;42.662;23.254;2023-02-15T06:50:51;38.20;;;22.50;;
71679;SDS011;59512;42.662;23.254;2023-02-15T06:53:16;35.72;;;20.63;;
71679;SDS011;59512;42.662;23.254;2023-02-15T06:55:42;39.13;;;21.70;;
71679;SDS011;59512;42.662;23.254;2023-02-15T06:58:07;36.70;;;21.77;;
71679;SDS011;59512;42.662;23.254;2023-02-15T07:00:32;41.37;;;21.63;;
71679;SDS011;59512;42.662;23.254;2023-02-15T07:02:58;36.47;;;20.20;;
71679;SDS011;59512;42.662;23.254;2023-02-15T07:05:27;33.65;;;18.95;;
71679;SDS011;59512;42.662;23.254;2023-02-15T07:07:59;33.08;;;18.58;;
71679;SDS011;59512;42.662;23.254;2023-02-15T07:10:25;33.58;;;18.20;;
71679;SDS011;59512;42.662;23.254;2023-02-15T07:12:51;30.93;;;17.87;;
71679;SDS011;59512;42.662;23.254;2023-02-15T07:15:17;35.00;;;20.20;;
71679;SDS011;59512;42.662;23.254;2023-02-15T07:17:45;33.70;;;19.13;;
71679;SDS011;59512;42.662;23.254;2023-02-15T07:20:12;29.73;;;17.27;;
71679;SDS011;59512;42.662;23.254;2023-02-15T07:22:41;33.40;;;19.48;;
71679;SDS011;59512;42.662;23.254;2023-02-15T07:25:08;29.20;;;16.80;;
71679;SDS011;59512;42.662;23.254;2023-02-15T07:27:35;28.77;;;17.00;;
71679;SDS011;59512;42.662;23.254;2023-02-15T07:30:00;27.07;;;15.40;;
71679;SDS011;59512;42.662;23.254;2023-02-15T07:32:29;30.27;;;17.70;;
71679;SDS011;59512;42.662;23.254;2023-02-15T07:34:55;28.50;;;15.30;;
71679;SDS011;59512;42.662;23.254;2023-02-15T07:37:21;29.65;;;15.98;;
71679;SDS011;59512;42.662;23.254;2023-02-15T07:39:47;25.97;;;15.07;;
71679;SDS011;59512;42.662;23.254;2023-02-15T07:42:12;32.37;;;17.67;;
71679;SDS011;59512;42.662;23.254;2023-02-15T07:44:37;28.95;;;16.98;;
71679;SDS011;59512;42.662;23.254;2023-02-15T07:47:03;28.27;;;16.37;;
71679;SDS011;59512;42.662;23.254;2023-02-15T07:49:28;28.83;;;16.07;;
71679;SDS011;59512;42.662;23.254;2023-02-15T07:51:54;28.50;;;15.97;;
71679;SDS011;59512;42.662;23.254;2023-02-15T07:54:19;29.53;;;17.00;;
71679;SDS011;59512;42.662;23.254;2023-02-15T07:56:45;30.20;;;17.45;;
71679;SDS011;59512;42.662;23.254;2023-02-15T07:59:10;31.33;;;17.50;;
71679;SDS011;59512;42.662;23.254;2023-02-15T08:01:36;32.80;;;16.67;;
71679;SDS011;59512;42.662;23.254;2023-02-15T08:04:03;27.48;;;16.77;;
71679;SDS011;59512;42.662;23.254;2023-02-15T08:06:31;31.60;;;16.77;;
71679;SDS011;59512;42.662;23.254;2023-02-15T08:09:00;32.78;;;17.33;;
71679;SDS011;59512;42.662;23.254;2023-02-15T08:11:28;29.87;;;17.23;;
71679;SDS011;59512;42.662;23.254;2023-02-15T08:19:16;30.38;;;17.17;;
71679;SDS011;59512;42.662;23.254;2023-02-15T08:21:45;28.95;;;17.10;;
71679;SDS011;59512;42.662;23.254;2023-02-15T08:24:13;30.43;;;17.90;;
71679;SDS011;59512;42.662;23.254;2023-02-15T08:26:40;29.45;;;16.40;;
71679;SDS011;59512;42.662;23.254;2023-02-15T08:29:06;28.88;;;16.42;;
71679;SDS011;59512;42.662;23.254;2023-02-15T08:31:33;28.40;;;15.93;;
71679;SDS011;59512;42.662;23.254;2023-02-15T08:33:59;30.00;;;16.02;;
71679;SDS011;59512;42.662;23.254;2023-02-15T08:36:28;26.60;;;15.27;;
71679;SDS011;59512;42.662;23.254;2023-02-15T08:39:00;28.10;;;15.23;;
71679;SDS011;59512;42.662;23.254;2023-02-15T08:41:27;31.33;;;16.95;;
71679;SDS011;59512;42.662;23.254;2023-02-15T08:43:55;26.60;;;16.00;;
71679;SDS011;59512;42.662;23.254;2023-02-15T08:46:22;25.95;;;15.10;;
71679;SDS011;59512;42.662;23.254;2023-02-15T08:48:49;27.98;;;15.98;;
71679;SDS011;59512;42.662;23.254;2023-02-15T08:51:36;26.02;;;15.82;;
71679;SDS011;59512;42.662;23.254;2023-02-15T08:54:05;33.03;;;17.03;;
71679;SDS011;59512;42.662;23.254;2023-02-15T08:56:34;29.08;;;17.05;;
71679;SDS011;59512;42.662;23.254;2023-02-15T08:59:01;25.90;;;14.68;;
71679;SDS011;59512;42.662;23.254;2023-02-15T09:01:28;30.10;;;16.85;;
71679;SDS011;59512;42.662;23.254;2023-02-15T09:03:57;33.33;;;18.42;;
71679;SDS011;59512;42.662;23.254;2023-02-15T09:06:25;33.53;;;18.07;;
71679;SDS011;59512;42.662;23.254;2023-02-15T09:08:50;40.92;;;19.52;;
71679;SDS011;59512;42.662;23.254;2023-02-15T09:11:18;48.40;;;20.17;;
71679;SDS011;59512;42.662;23.254;2023-02-15T09:13:52;33.08;;;18.77;;
71679;SDS011;59512;42.662;23.254;2023-02-15T09:16:20;33.63;;;18.10;;
71679;SDS011;59512;42.662;23.254;2023-02-15T09:18:46;32.63;;;18.63;;
71679;SDS011;59512;42.662;23.254;2023-02-15T09:21:14;37.27;;;20.60;;
71679;SDS011;59512;42.662;23.254;2023-02-15T09:23:41;45.05;;;21.15;;
71679;SDS011;59512;42.662;23.254;2023-02-15T09:26:09;37.88;;;19.92;;
71679;SDS011;59512;42.662;23.254;2023-02-15T09:28:37;36.53;;;21.40;;
71679;SDS011;59512;42.662;23.254;2023-02-15T09:33:34;33.60;;;19.55;;
71679;SDS011;59512;42.662;23.254;2023-02-15T09:36:00;31.25;;;18.30;;
71679;SDS011;59512;42.662;23.254;2023-02-15T09:38:26;32.80;;;18.70;;
71679;SDS011;59512;42.662;23.254;2023-02-15T10:00:20;34.42;;;18.33;;
71679;SDS011;59512;42.662;23.254;2023-02-15T10:06:01;30.83;;;17.88;;
71679;SDS011;59512;42.662;23.254;2023-02-15T10:11:52;28.75;;;17.35;;
71679;SDS011;59512;42.662;23.254;2023-02-15T10:17:10;33.42;;;18.65;;
71679;SDS011;59512;42.662;23.254;2023-02-15T10:25:54;33.60;;;18.85;;
71679;SDS011;59512;42.662;23.254;2023-02-15T10:28:50;29.60;;;18.55;;
71679;SDS011;59512;42.662;23.254;2023-02-15T10:33:50;34.83;;;19.75;;
71679;SDS011;59512;42.662;23.254;2023-02-15T10:41:22;32.95;;;18.85;;
71679;SDS011;59512;42.662;23.254;2023-02-15T10:49:51;33.20;;;20.03;;
71679;SDS011;59512;42.662;23.254;2023-02-15T10:57:36;37.20;;;20.98;;
71679;SDS011;59512;42.662;23.254;2023-02-15T11:05:41;34.33;;;19.27;;
71679;SDS011;59512;42.662;23.254;2023-02-15T11:08:14;34.15;;;20.75;;
71679;SDS011;59512;42.662;23.254;2023-02-15T11:13:17;32.08;;;18.77;;
71679;SDS011;59512;42.662;23.254;2023-02-15T11:18:41;38.15;;;19.02;;
71679;SDS011;59512;42.662;23.254;2023-02-15T11:21:17;38.70;;;20.20;;
71679;SDS011;59512;42.662;23.254;2023-02-15T11:23:48;32.38;;;20.13;;
71679;SDS011;59512;42.662;23.254;2023-02-15T11:28:58;42.20;;;19.75;;
71679;SDS011;59512;42.662;23.254;2023-02-15T11:31:29;39.17;;;20.00;;
71679;SDS011;59512;42.662;23.254;2023-02-15T11:34:12;30.10;;;18.20;;
71679;SDS011;59512;42.662;23.254;2023-02-15T11:37:00;30.47;;;18.47;;
71679;SDS011;59512;42.662;23.254;2023-02-15T11:39:30;30.95;;;18.50;;
71679;SDS011;59512;42.662;23.254;2023-02-15T11:41:57;34.55;;;19.55;;
71679;SDS011;59512;42.662;23.254;2023-02-15T11:44:27;30.42;;;18.23;;
71679;SDS011;59512;42.662;23.254;2023-02-15T11:46:57;32.67;;;18.67;;
71679;SDS011;59512;42.662;23.254;2023-02-15T11:49:33;33.40;;;19.67;;
71679;SDS011;59512;42.662;23.254;2023-02-15T11:52:10;31.23;;;19.02;;
71679;SDS011;59512;42.662;23.254;2023-02-15T11:54:39;31.60;;;18.13;;
71679;SDS011;59512;42.662;23.254;2023-02-15T12:00:26;33.13;;;18.88;;
71679;SDS011;59512;42.662;23.254;2023-02-15T12:06:17;33.22;;;18.75;;
71679;SDS011;59512;42.662;23.254;2023-02-15T12:08:55;32.78;;;18.98;;
71679;SDS011;59512;42.662;23.254;2023-02-15T12:11:37;32.67;;;19.63;;
71679;SDS011;59512;42.662;23.254;2023-02-15T12:14:05;34.63;;;19.73;;
71679;SDS011;59512;42.662;23.254;2023-02-15T12:16:51;34.00;;;19.80;;
71679;SDS011;59512;42.662;23.254;2023-02-15T12:19:29;34.03;;;18.77;;
71679;SDS011;59512;42.662;23.254;2023-02-15T12:22:02;34.65;;;20.08;;
71679;SDS011;59512;42.662;23.254;2023-02-15T12:24:38;32.90;;;19.80;;
71679;SDS011;59512;42.662;23.254;2023-02-15T12:27:23;33.72;;;19.17;;
71679;SDS011;59512;42.662;23.254;2023-02-15T12:29:59;38.37;;;20.33;;
71679;SDS011;59512;42.662;23.254;2023-02-15T12:32:33;34.28;;;19.90;;
71679;SDS011;59512;42.662;23.254;2023-02-15T12:35:02;32.42;;;19.17;;
71679;SDS011;59512;42.662;23.254;2023-02-15T12:37:35;33.03;;;19.25;;
71679;SDS011;59512;42.662;23.254;2023-02-15T12:40:02;34.13;;;19.57;;
71679;SDS011;59512;42.662;23.254;2023-02-15T12:42:44;32.30;;;19.38;;
71679;SDS011;59512;42.662;23.254;2023-02-15T12:45:26;38.05;;;20.08;;
71679;SDS011;59512;42.662;23.254;2023-02-15T12:48:10;31.17;;;19.20;;
71679;SDS011;59512;42.662;23.254;2023-02-15T12:50:41;30.45;;;18.60;;
71679;SDS011;59512;42.662;23.254;2023-02-15T12:58:23;32.03;;;18.58;;
71679;SDS011;59512;42.662;23.254;2023-02-15T13:03:27;31.75;;;19.70;;
71679;SDS011;59512;42.662;23.254;2023-02-15T13:05:53;29.45;;;18.45;;
71679;SDS011;59512;42.662;23.254;2023-02-15T13:08:21;29.85;;;18.30;;
71679;SDS011;59512;42.662;23.254;2023-02-15T13:13:36;33.13;;;19.63;;
71679;SDS011;59512;42.662;23.254;2023-02-15T13:16:16;33.92;;;19.20;;
71679;SDS011;59512;42.662;23.254;2023-02-15T13:18:50;29.83;;;18.87;;
71679;SDS011;59512;42.662;23.254;2023-02-15T13:21:18;33.38;;;19.38;;
71679;SDS011;59512;42.662;23.254;2023-02-15T13:23:49;31.45;;;19.55;;
71679;SDS011;59512;42.662;23.254;2023-02-15T13:26:21;28.90;;;17.77;;
71679;SDS011;59512;42.662;23.254;2023-02-15T13:28:51;32.30;;;19.55;;
71679;SDS011;59512;42.662;23.254;2023-02-15T13:31:20;30.97;;;18.93;;
71679;SDS011;59512;42.662;23.254;2023-02-15T13:33:56;33.05;;;18.85;;
71679;SDS011;59512;42.662;23.254;2023-02-15T14:00:47;34.03;;;19.17;;
71679;SDS011;59512;42.662;23.254;2023-02-15T14:03:40;30.92;;;19.75;;
71679;SDS011;59512;42.662;23.254;2023-02-15T14:11:58;34.07;;;20.50;;
71679;SDS011;59512;42.662;23.254;2023-02-15T14:20:08;34.70;;;19.90;;
71679;SDS011;59512;42.662;23.254;2023-02-15T14:22:43;32.58;;;19.27;;
71679;SDS011;59512;42.662;23.254;2023-02-15T14:25:17;33.23;;;20.53;;
71679;SDS011;59512;42.662;23.254;2023-02-15T14:27:54;35.30;;;21.42;;
71679;SDS011;59512;42.662;23.254;2023-02-15T14:30:36;37.65;;;21.08;;
71679;SDS011;59512;42.662;23.254;2023-02-15T14:35:50;35.80;;;20.95;;
71679;SDS011;59512;42.662;23.254;2023-02-15T14:41:11;37.08;;;22.23;;
71679;SDS011;59512;42.662;23.254;2023-02-15T14:47:40;36.40;;;21.17;;
71679;SDS011;59512;42.662;23.254;2023-02-15T14:49:55;35.63;;;21.67;;
71679;SDS011;59512;42.662;23.254;2023-02-15T14:52:20;37.40;;;21.42;;
71679;SDS011;59512;42.662;23.254;2023-02-15T14:59:43;36.20;;;20.97;;
71679;SDS011;59512;42.662;23.254;2023-02-15T15:02:13;39.40;;;23.00;;
71679;SDS011;59512;42.662;23.254;2023-02-15T15:07:28;38.58;;;21.13;;
71679;SDS011;59512;42.662;23.254;2023-02-15T15:12:47;37.13;;;22.15;;
71679;SDS011;59512;42.662;23.254;2023-02-15T15:20:38;40.80;;;22.88;;
71679;SDS011;59512;42.662;23.254;2023-02-15T15:31:00;41.47;;;23.95;;
71679;SDS011;59512;42.662;23.254;2023-02-15T15:33:44;40.88;;;25.50;;
71679;SDS011;59512;42.662;23.254;2023-02-15T15:50:30;44.50;;;24.80;;
71679;SDS011;59512;42.662;23.254;2023-02-15T15:52:57;42.78;;;25.40;;
71679;SDS011;59512;42.662;23.254;2023-02-15T15:55:24;48.72;;;27.00;;
71679;SDS011;59512;42.662;23.254;2023-02-15T15:57:52;45.33;;;26.70;;
71679;SDS011;59512;42.662;23.254;2023-02-15T16:00:27;46.22;;;26.23;;
71679;SDS011;59512;42.662;23.254;2023-02-15T16:03:02;42.83;;;24.40;;
71679;SDS011;59512;42.662;23.254;2023-02-15T16:05:34;44.33;;;25.42;;
71679;SDS011;59512;42.662;23.254;2023-02-15T16:08:01;51.80;;;27.25;;
71679;SDS011;59512;42.662;23.254;2023-02-15T16:10:27;46.73;;;25.37;;
71679;SDS011;59512;42.662;23.254;2023-02-15T16:12:54;48.42;;;27.52;;
71679;SDS011;59512;42.662;23.254;2023-02-15T16:15:20;49.13;;;27.37;;
71679;SDS011;59512;42.662;23.254;2023-02-15T16:17:49;47.95;;;27.30;;
71679;SDS011;59512;42.662;23.254;2023-02-15T16:20:21;49.70;;;26.37;;
71679;SDS011;59512;42.662;23.254;2023-02-15T16:28:37;50.72;;;28.10;;
71679;SDS011;59512;42.662;23.254;2023-02-15T16:33:36;43.00;;;25.80;;
71679;SDS011;59512;42.662;23.254;2023-02-15T16:36:04;43.22;;;25.58;;
71679;SDS011;59512;42.662;23.254;2023-02-15T16:41:06;42.15;;;24.92;;
71679;SDS011;59512;42.662;23.254;2023-02-15T16:43:32;48.30;;;27.98;;
71679;SDS011;59512;42.662;23.254;2023-02-15T16:46:03;45.00;;;26.58;;
71679;SDS011;59512;42.662;23.254;2023-02-15T16:48:30;45.67;;;26.10;;
71679;SDS011;59512;42.662;23.254;2023-02-15T16:50:56;51.80;;;27.63;;
71679;SDS011;59512;42.662;23.254;2023-02-15T16:53:25;51.97;;;29.38;;
71679;SDS011;59512;42.662;23.254;2023-02-15T16:55:58;52.22;;;28.73;;
71679;SDS011;59512;42.662;23.254;2023-02-15T16:58:44;51.08;;;29.70;;
71679;SDS011;59512;42.662;23.254;2023-02-15T17:01:11;53.87;;;31.10;;
71679;SDS011;59512;42.662;23.254;2023-02-15T17:03:38;54.53;;;29.85;;
71679;SDS011;59512;42.662;23.254;2023-02-15T17:06:05;51.97;;;29.85;;
71679;SDS011;59512;42.662;23.254;2023-02-15T17:08:45;55.92;;;31.30;;
71679;SDS011;59512;42.662;23.254;2023-02-15T17:11:12;57.87;;;31.87;;
71679;SDS011;59512;42.662;23.254;2023-02-15T17:16:29;56.83;;;31.00;;
71679;SDS011;59512;42.662;23.254;2023-02-15T17:18:58;52.75;;;28.35;;
71679;SDS011;59512;42.662;23.254;2023-02-15T17:21:30;47.30;;;28.47;;
71679;SDS011;59512;42.662;23.254;2023-02-15T17:23:58;55.53;;;31.65;;
71679;SDS011;59512;42.662;23.254;2023-02-15T17:26:43;54.67;;;31.75;;
71679;SDS011;59512;42.662;23.254;2023-02-15T17:29:19;54.67;;;31.48;;
71679;SDS011;59512;42.662;23.254;2023-02-15T17:31:51;55.80;;;32.05;;
71679;SDS011;59512;42.662;23.254;2023-02-15T17:37:23;43.47;;;25.73;;
71679;SDS011;59512;42.662;23.254;2023-02-15T17:39:50;40.85;;;23.20;;
71679;SDS011;59512;42.662;23.254;2023-02-15T17:42:15;42.43;;;24.30;;
71679;SDS011;59512;42.662;23.254;2023-02-15T17:44:41;38.33;;;23.00;;
71679;SDS011;59512;42.662;23.254;2023-02-15T17:47:06;40.60;;;22.70;;
71679;SDS011;59512;42.662;23.254;2023-02-15T17:49:31;37.63;;;22.02;;
71679;SDS011;59512;42.662;23.254;2023-02-15T17:52:02;39.33;;;21.43;;
71679;SDS011;59512;42.662;23.254;2023-02-15T17:54:28;34.28;;;20.48;;
71679;SDS011;59512;42.662;23.254;2023-02-15T17:57:13;35.03;;;19.33;;
71679;SDS011;59512;42.662;23.254;2023-02-15T17:59:39;32.60;;;19.13;;
71679;SDS011;59512;42.662;23.254;2023-02-15T18:02:23;33.78;;;19.27;;
71679;SDS011;59512;42.662;23.254;2023-02-15T18:05:13;31.50;;;18.07;;
71679;SDS011;59512;42.662;23.254;2023-02-15T18:07:58;34.78;;;19.45;;